createdAt,value
2018-07-02T00:00:39.199Z,45.47
2018-07-02T00:01:39.116Z,45.95
2018-07-02T00:02:39.003Z,46.36
2018-07-02T00:03:38.997Z,46.43
2018-07-02T00:04:38.996Z,47.30
2018-07-02T00:05:38.877Z,46.62
2018-07-02T00:06:38.878Z,46.34
2018-07-02T00:07:38.875Z,47.39
2018-07-02T00:08:38.759Z,46.53
2018-07-02T00:09:38.758Z,45.86
2018-07-02T00:10:38.757Z,45.95
2018-07-02T00:11:38.673Z,46.53
2018-07-02T00:12:38.635Z,47.87
2018-07-02T00:13:38.638Z,47.58
2018-07-02T00:14:38.515Z,47.68
2018-07-02T00:15:38.514Z,47.01
2018-07-02T00:16:38.514Z,46.72
2018-07-02T00:17:38.400Z,46.24
2018-07-02T00:18:38.392Z,47.10
2018-07-02T00:19:38.395Z,47.30
2018-07-02T00:20:38.273Z,48.07
2018-07-02T00:21:38.273Z,47.58
2018-07-02T00:22:38.275Z,47.39
2018-07-02T00:23:38.152Z,47.68
2018-07-02T00:24:38.153Z,48.07
2018-07-02T00:25:38.151Z,47.30
2018-07-02T00:26:38.031Z,47.49
2018-07-02T00:27:38.033Z,47.20
2018-07-02T00:28:38.030Z,47.77
2018-07-02T00:29:37.916Z,47.68
2018-07-02T00:30:37.910Z,47.68
2018-07-02T00:31:37.911Z,47.77
2018-07-02T00:32:37.792Z,47.97
2018-07-02T00:33:37.789Z,48.35
2018-07-02T00:34:37.791Z,48.07
2018-07-02T00:35:37.672Z,48.16
2018-07-02T00:36:37.668Z,48.13
2018-07-02T00:37:37.669Z,48.80
2018-07-02T00:38:37.550Z,48.43
2018-07-02T00:39:37.547Z,48.80
2018-07-02T00:40:37.549Z,49.10
2018-07-02T00:41:37.428Z,48.43
2018-07-02T00:42:37.461Z,48.13
2018-07-02T00:43:37.427Z,48.90
2018-07-02T00:44:37.311Z,48.71
2018-07-02T00:45:37.308Z,48.80
2018-07-02T00:46:37.266Z,49.00
2018-07-02T00:47:37.187Z,48.80
2018-07-02T00:48:37.186Z,48.33
2018-07-02T00:49:37.065Z,49.29
2018-07-02T00:50:37.066Z,49.38
2018-07-02T00:51:37.073Z,49.57
2018-07-02T00:52:36.946Z,49.38
2018-07-02T00:53:36.944Z,48.90
2018-07-02T00:54:36.945Z,49.38
2018-07-02T00:55:36.824Z,49.48
2018-07-02T00:56:36.824Z,49.29
2018-07-02T00:57:36.823Z,49.48
2018-07-02T00:58:36.707Z,49.10
2018-07-02T00:59:36.703Z,49.00
2018-07-02T01:00:36.709Z,49.19
2018-07-02T01:01:36.582Z,49.48
2018-07-02T01:02:36.583Z,49.48
2018-07-02T01:03:36.583Z,49.38
2018-07-02T01:04:36.467Z,49.76
2018-07-02T01:05:36.463Z,50.43
2018-07-02T01:06:36.462Z,49.96
2018-07-02T01:07:36.342Z,49.96
2018-07-02T01:08:36.348Z,49.67
2018-07-02T01:09:36.341Z,49.38
2018-07-02T01:10:36.223Z,49.96
2018-07-02T01:11:36.301Z,50.24
2018-07-02T01:12:36.221Z,50.15
2018-07-02T01:13:36.101Z,50.63
2018-07-02T01:14:36.100Z,50.53
2018-07-02T01:15:36.102Z,50.79
2018-07-02T01:16:35.980Z,50.03
2018-07-02T01:17:35.979Z,49.96
2018-07-02T01:18:35.982Z,50.15
2018-07-02T01:19:35.861Z,50.92
2018-07-02T01:20:35.865Z,50.82
2018-07-02T01:21:35.858Z,49.93
2018-07-02T01:22:35.738Z,50.15
2018-07-02T01:23:35.737Z,50.79
2018-07-02T01:24:35.696Z,50.70
2018-07-02T01:25:35.616Z,50.99
2018-07-02T01:26:35.616Z,50.99
2018-07-02T01:27:35.497Z,50.99
2018-07-02T01:28:35.496Z,50.99
2018-07-02T01:29:35.497Z,50.99
2018-07-02T01:30:35.377Z,50.51
2018-07-02T01:31:35.377Z,50.89
2018-07-02T01:32:35.391Z,50.99
2018-07-02T01:33:35.257Z,50.89
2018-07-02T01:34:35.256Z,51.65
2018-07-02T01:35:35.256Z,51.28
2018-07-02T01:36:35.137Z,51.28
2018-07-02T01:37:35.136Z,51.18
2018-07-02T01:38:35.138Z,50.60
2018-07-02T01:39:35.421Z,50.99
2018-07-02T01:40:35.655Z,50.89
2018-07-02T01:41:35.014Z,50.89
2018-07-02T01:42:34.895Z,51.18
2018-07-02T01:43:34.896Z,50.89
2018-07-02T01:44:34.893Z,51.85
2018-07-02T01:45:34.774Z,51.46
2018-07-02T01:46:34.773Z,51.37
2018-07-02T01:47:34.774Z,51.56
2018-07-02T01:48:34.652Z,51.75
2018-07-02T01:49:34.651Z,51.56
2018-07-02T01:50:34.650Z,51.28
2018-07-02T01:51:34.533Z,51.56
2018-07-02T01:52:34.538Z,51.65
2018-07-02T01:53:34.533Z,51.65
2018-07-02T01:54:34.418Z,51.75
2018-07-02T01:55:34.410Z,51.85
2018-07-02T01:56:34.417Z,51.65
2018-07-02T01:57:34.295Z,51.75
2018-07-02T01:58:34.293Z,51.44
2018-07-02T01:59:34.288Z,51.85
2018-07-02T02:00:34.169Z,51.82
2018-07-02T02:01:34.170Z,51.63
2018-07-02T02:02:34.050Z,52.01
2018-07-02T02:03:34.049Z,52.23
2018-07-02T02:04:34.054Z,52.59
2018-07-02T02:05:33.932Z,53.07
2018-07-02T02:06:33.937Z,52.78
2018-07-02T02:07:33.928Z,52.78
2018-07-02T02:08:33.809Z,52.11
2018-07-02T02:09:33.807Z,52.59
2018-07-02T02:10:33.809Z,52.01
2018-07-02T02:11:33.687Z,52.30
2018-07-02T02:12:33.689Z,52.87
2018-07-02T02:13:33.690Z,53.07
2018-07-02T02:14:33.569Z,52.11
2018-07-02T02:15:33.568Z,52.01
2018-07-02T02:16:33.568Z,51.73
2018-07-02T02:17:33.445Z,52.50
2018-07-02T02:18:33.448Z,52.78
2018-07-02T02:19:33.446Z,52.78
2018-07-02T02:20:33.326Z,53.36
2018-07-02T02:21:33.325Z,52.78
2018-07-02T02:22:33.323Z,52.87
2018-07-02T02:23:33.251Z,52.59
2018-07-02T02:24:33.204Z,52.87
2018-07-02T02:25:33.203Z,53.36
2018-07-02T02:26:33.092Z,52.87
2018-07-02T02:27:33.084Z,52.69
2018-07-02T02:28:33.041Z,52.87
2018-07-02T02:29:32.966Z,53.26
2018-07-02T02:30:32.967Z,53.74
2018-07-02T02:31:32.845Z,53.55
2018-07-02T02:32:32.850Z,52.97
2018-07-02T02:33:32.848Z,53.36
2018-07-02T02:34:32.721Z,53.74
2018-07-02T02:35:32.728Z,53.83
2018-07-02T02:36:32.722Z,54.12
2018-07-02T02:37:32.604Z,53.71
2018-07-02T02:38:32.605Z,53.64
2018-07-02T02:39:32.607Z,53.55
2018-07-02T02:40:32.481Z,53.55
2018-07-02T02:41:32.480Z,53.93
2018-07-02T02:42:32.481Z,53.81
2018-07-02T02:43:32.362Z,54.38
2018-07-02T02:44:32.358Z,54.19
2018-07-02T02:45:32.359Z,53.81
2018-07-02T02:46:32.241Z,54.10
2018-07-02T02:47:32.242Z,54.77
2018-07-02T02:48:32.237Z,54.77
2018-07-02T02:49:32.119Z,54.48
2018-07-02T02:50:32.118Z,54.48
2018-07-02T02:51:32.121Z,54.38
2018-07-02T02:52:32.001Z,54.28
2018-07-02T02:53:32.004Z,54.77
2018-07-02T02:54:31.961Z,54.67
2018-07-02T02:55:31.878Z,54.86
2018-07-02T02:56:31.883Z,55.15
2018-07-02T02:57:31.756Z,55.53
2018-07-02T02:58:31.762Z,54.96
2018-07-02T02:59:31.757Z,55.24
2018-07-02T03:00:31.637Z,55.15
2018-07-02T03:01:31.640Z,55.53
2018-07-02T03:02:31.636Z,55.44
2018-07-02T03:03:31.518Z,55.73
2018-07-02T03:04:31.519Z,56.10
2018-07-02T03:05:31.515Z,55.73
2018-07-02T03:06:31.401Z,55.15
2018-07-02T03:07:31.396Z,55.53
2018-07-02T03:08:31.398Z,56.20
2018-07-02T03:09:31.275Z,56.87
2018-07-02T03:10:31.277Z,56.65
2018-07-02T03:11:31.273Z,56.87
2018-07-02T03:12:31.156Z,57.23
2018-07-02T03:13:31.154Z,57.42
2018-07-02T03:14:31.152Z,57.80
2018-07-02T03:15:31.033Z,57.51
2018-07-02T03:16:31.035Z,57.42
2018-07-02T03:17:31.029Z,57.42
2018-07-02T03:18:30.913Z,57.13
2018-07-02T03:19:30.912Z,58.37
2018-07-02T03:20:30.805Z,58.76
2018-07-02T03:21:30.793Z,59.23
2018-07-02T03:22:30.795Z,59.81
2018-07-02T03:23:30.670Z,59.43
2018-07-02T03:24:30.670Z,59.52
2018-07-02T03:25:30.676Z,59.52
2018-07-02T03:26:30.553Z,59.81
2018-07-02T03:27:30.554Z,59.43
2018-07-02T03:28:30.557Z,59.43
2018-07-02T03:29:30.430Z,59.33
2018-07-02T03:30:30.433Z,59.01
2018-07-02T03:31:30.430Z,59.20
2018-07-02T03:32:30.309Z,58.92
2018-07-02T03:33:30.314Z,59.11
2018-07-02T03:34:30.309Z,58.83
2018-07-02T03:35:30.192Z,58.83
2018-07-02T03:36:30.190Z,57.97
2018-07-02T03:37:30.191Z,58.63
2018-07-02T03:38:30.067Z,58.44
2018-07-02T03:39:30.068Z,59.49
2018-07-02T03:40:30.026Z,59.69
2018-07-02T03:41:29.948Z,59.11
2018-07-02T03:42:29.946Z,59.49
2018-07-02T03:43:29.826Z,59.40
2018-07-02T03:44:29.825Z,59.20
2018-07-02T03:45:29.827Z,59.30
2018-07-02T03:46:29.706Z,58.73
2018-07-02T03:47:29.706Z,58.54
2018-07-02T03:48:29.708Z,59.69
2018-07-02T03:49:29.595Z,59.20
2018-07-02T03:50:29.590Z,60.35
2018-07-02T03:51:29.588Z,60.93
2018-07-02T03:52:29.469Z,60.45
2018-07-02T03:53:29.465Z,60.16
2018-07-02T03:54:29.464Z,60.16
2018-07-02T03:55:29.345Z,60.45
2018-07-02T03:56:29.350Z,60.55
2018-07-02T03:57:29.349Z,60.35
2018-07-02T03:58:29.227Z,61.31
2018-07-02T03:59:29.224Z,61.79
2018-07-02T04:00:29.225Z,62.08
2018-07-02T04:01:29.104Z,61.88
2018-07-02T04:02:29.106Z,61.88
2018-07-02T04:03:28.984Z,62.27
2018-07-02T04:04:28.983Z,62.74
2018-07-02T04:05:28.986Z,63.03
2018-07-02T04:06:28.869Z,62.94
2018-07-02T04:07:28.867Z,63.13
2018-07-02T04:08:28.866Z,63.42
2018-07-02T04:09:28.745Z,63.80
2018-07-02T04:10:28.744Z,63.23
2018-07-02T04:11:28.742Z,63.03
2018-07-02T04:12:28.623Z,63.13
2018-07-02T04:13:28.620Z,63.80
2018-07-02T04:14:28.620Z,63.42
2018-07-02T04:15:28.501Z,64.09
2018-07-02T04:16:28.498Z,63.51
2018-07-02T04:17:28.501Z,62.84
2018-07-02T04:18:28.381Z,62.27
2018-07-02T04:19:28.377Z,61.88
2018-07-02T04:20:28.338Z,62.08
2018-07-02T04:21:28.261Z,61.98
2018-07-02T04:22:28.258Z,61.98
2018-07-02T04:23:28.139Z,62.17
2018-07-02T04:24:28.138Z,61.88
2018-07-02T04:25:28.139Z,61.60
2018-07-02T04:26:28.032Z,62.08
2018-07-02T04:27:28.019Z,61.60
2018-07-02T04:28:28.016Z,61.31
2018-07-02T04:29:27.900Z,61.31
2018-07-02T04:30:27.896Z,61.22
2018-07-02T04:31:27.897Z,61.31
2018-07-02T04:32:27.777Z,61.98
2018-07-02T04:33:27.775Z,61.31
2018-07-02T04:34:27.778Z,61.41
2018-07-02T04:35:27.655Z,61.31
2018-07-02T04:36:27.655Z,61.69
2018-07-02T04:37:27.656Z,61.12
2018-07-02T04:38:27.535Z,60.74
2018-07-02T04:39:27.543Z,60.35
2018-07-02T04:40:27.496Z,60.55
2018-07-02T04:41:27.422Z,59.97
2018-07-02T04:42:27.415Z,61.22
2018-07-02T04:43:27.297Z,60.55
2018-07-02T04:44:27.299Z,60.35
2018-07-02T04:45:27.293Z,60.00
2018-07-02T04:46:27.173Z,60.77
2018-07-02T04:47:27.174Z,60.64
2018-07-02T04:48:27.194Z,60.29
2018-07-02T04:49:27.052Z,60.48
2018-07-02T04:50:27.053Z,60.19
2018-07-02T04:51:27.058Z,59.81
2018-07-02T04:52:26.933Z,59.81
2018-07-02T04:53:26.933Z,60.00
2018-07-02T04:54:26.937Z,60.10
2018-07-02T04:55:26.811Z,60.00
2018-07-02T04:56:26.811Z,60.19
2018-07-02T04:57:26.811Z,61.54
2018-07-02T04:58:26.695Z,60.19
2018-07-02T04:59:26.690Z,59.91
2018-07-02T05:00:26.648Z,60.19
2018-07-02T05:01:26.575Z,60.10
2018-07-02T05:02:26.572Z,60.38
2018-07-02T05:03:26.453Z,60.00
2018-07-02T05:04:26.461Z,60.19
2018-07-02T05:05:26.455Z,60.19
2018-07-02T05:06:26.329Z,59.81
2018-07-02T05:07:26.328Z,60.19
2018-07-02T05:08:26.330Z,59.43
2018-07-02T05:09:26.211Z,59.43
2018-07-02T05:10:26.211Z,59.17
2018-07-02T05:11:26.209Z,59.65
2018-07-02T05:12:26.091Z,58.79
2018-07-02T05:13:26.096Z,59.36
2018-07-02T05:14:26.090Z,58.69
2018-07-02T05:15:25.972Z,59.36
2018-07-02T05:16:25.966Z,59.27
2018-07-02T05:17:25.966Z,59.45
2018-07-02T05:18:25.847Z,59.65
2018-07-02T05:19:25.852Z,59.08
2018-07-02T05:20:25.845Z,59.08
2018-07-02T05:21:25.727Z,59.65
2018-07-02T05:22:25.725Z,58.79
2018-07-02T05:23:25.612Z,58.79
2018-07-02T05:24:25.608Z,58.88
2018-07-02T05:25:25.607Z,58.79
2018-07-02T05:26:25.484Z,58.12
2018-07-02T05:27:25.486Z,58.50
2018-07-02T05:28:25.484Z,58.50
2018-07-02T05:29:25.366Z,58.05
2018-07-02T05:30:25.362Z,58.34
2018-07-02T05:31:25.389Z,58.34
2018-07-02T05:32:25.249Z,57.28
2018-07-02T05:33:25.245Z,57.48
2018-07-02T05:34:25.253Z,56.23
2018-07-02T05:35:25.121Z,56.90
2018-07-02T05:36:25.122Z,56.99
2018-07-02T05:37:25.121Z,56.52
2018-07-02T05:38:25.008Z,55.75
2018-07-02T05:39:25.003Z,56.45
2018-07-02T05:40:24.999Z,56.81
2018-07-02T05:41:24.881Z,56.93
2018-07-02T05:42:24.885Z,56.35
2018-07-02T05:43:24.762Z,56.35
2018-07-02T05:44:24.760Z,55.68
2018-07-02T05:45:24.759Z,55.40
2018-07-02T05:46:24.640Z,55.21
2018-07-02T05:47:24.644Z,55.40
2018-07-02T05:49:24.519Z,55.21
2018-07-02T05:50:24.518Z,54.82
2018-07-02T05:51:24.523Z,54.63
2018-07-02T05:52:24.398Z,55.30
2018-07-02T05:53:24.402Z,54.82
2018-07-02T05:54:24.405Z,54.94
2018-07-02T05:55:24.277Z,55.33
2018-07-02T05:56:24.278Z,54.85
2018-07-02T05:57:24.282Z,55.33
2018-07-02T05:58:24.157Z,54.85
2018-07-02T05:59:24.156Z,55.04
2018-07-02T06:00:24.219Z,54.85
2018-07-02T06:01:24.037Z,53.70
2018-07-02T06:02:24.038Z,53.60
2018-07-02T06:03:24.038Z,53.60
2018-07-02T06:04:23.921Z,53.50
2018-07-02T06:05:23.917Z,53.41
2018-07-02T06:06:23.877Z,53.22
2018-07-02T06:07:23.794Z,52.83
2018-07-02T06:08:23.796Z,53.41
2018-07-02T06:09:23.678Z,53.44
2018-07-02T06:10:23.674Z,53.15
2018-07-02T06:11:23.862Z,52.76
2018-07-02T06:12:23.557Z,53.15
2018-07-02T06:13:23.553Z,52.76
2018-07-02T06:14:23.555Z,52.67
2018-07-02T06:15:23.435Z,51.90
2018-07-02T06:16:23.471Z,52.09
2018-07-02T06:17:23.435Z,52.09
2018-07-02T06:18:23.322Z,51.81
2018-07-02T06:19:23.312Z,51.90
2018-07-02T06:20:23.311Z,51.61
2018-07-02T06:21:23.192Z,51.14
2018-07-02T06:22:23.196Z,50.94
2018-07-02T06:23:23.191Z,51.45
2018-07-02T06:24:23.071Z,51.54
2018-07-02T06:25:23.070Z,50.87
2018-07-02T06:26:23.070Z,51.54
2018-07-02T06:27:22.950Z,50.87
2018-07-02T06:28:22.953Z,50.87
2018-07-02T06:29:22.950Z,51.35
2018-07-02T06:30:22.858Z,51.16
2018-07-02T06:31:22.829Z,50.90
2018-07-02T06:32:22.829Z,50.68
2018-07-02T06:33:22.709Z,50.99
2018-07-02T06:34:22.710Z,50.96
2018-07-02T06:35:22.708Z,51.18
2018-07-02T06:36:22.593Z,50.61
2018-07-02T06:37:22.589Z,50.51
2018-07-02T06:38:22.589Z,49.74
2018-07-02T06:39:22.467Z,49.17
2018-07-02T06:40:22.467Z,49.17
2018-07-02T06:41:22.425Z,49.26
2018-07-02T06:42:22.348Z,49.74
2018-07-02T06:43:22.347Z,49.29
2018-07-02T06:44:22.304Z,48.90
2018-07-02T06:45:22.230Z,48.52
2018-07-02T06:46:22.226Z,48.04
2018-07-02T06:47:22.106Z,48.52
2018-07-02T06:48:22.137Z,50.25
2018-07-02T06:49:22.107Z,49.67
2018-07-02T06:50:21.986Z,48.81
2018-07-02T06:51:21.985Z,47.75
2018-07-02T06:52:21.985Z,47.58
2018-07-02T06:53:21.865Z,47.68
2018-07-02T06:54:21.864Z,47.20
2018-07-02T06:55:21.863Z,47.39
2018-07-02T06:56:21.746Z,48.74
2018-07-02T06:57:21.743Z,47.39
2018-07-02T06:58:21.743Z,47.68
2018-07-02T06:59:21.622Z,47.68
2018-07-02T07:00:21.624Z,47.70
2018-07-02T07:01:21.623Z,47.49
2018-07-02T07:02:21.501Z,47.31
2018-07-02T07:03:21.502Z,46.74
2018-07-02T07:04:21.503Z,46.26
2018-07-02T07:05:21.385Z,46.16
2018-07-02T07:06:21.381Z,46.36
2018-07-02T07:07:21.380Z,46.06
2018-07-02T07:08:21.262Z,45.78
2018-07-02T07:09:21.261Z,45.97
2018-07-02T07:10:21.264Z,45.10
2018-07-02T07:11:21.140Z,45.49
2018-07-02T07:12:21.140Z,45.99
2018-07-02T07:13:21.140Z,45.42
2018-07-02T07:14:21.019Z,46.09
2018-07-02T07:15:21.026Z,46.09
2018-07-02T07:16:21.025Z,45.99
2018-07-02T07:17:20.899Z,45.42
2018-07-02T07:18:20.900Z,46.28
2018-07-02T07:19:20.900Z,45.32
2018-07-02T07:20:20.783Z,45.03
2018-07-02T07:21:20.779Z,45.03
2018-07-02T07:22:20.778Z,44.84
2018-07-02T07:23:20.660Z,45.44
2018-07-02T07:24:20.662Z,46.50
2018-07-02T07:25:20.657Z,45.44
2018-07-02T07:26:20.541Z,45.05
2018-07-02T07:27:20.539Z,44.09
2018-07-02T07:28:20.535Z,43.71
2018-07-02T07:29:20.416Z,44.28
2018-07-02T07:30:20.415Z,44.09
2018-07-02T07:31:20.423Z,43.63
2018-07-02T07:32:20.294Z,43.63
2018-07-02T07:33:20.299Z,44.31
2018-07-02T07:34:20.294Z,44.02
2018-07-02T07:35:20.174Z,43.73
2018-07-02T07:36:20.173Z,44.11
2018-07-02T07:37:20.178Z,43.44
2018-07-02T07:38:20.055Z,43.17
2018-07-02T07:39:20.055Z,43.92
2018-07-02T07:40:20.059Z,43.63
2018-07-02T07:41:19.940Z,44.04
2018-07-02T07:42:19.934Z,43.27
2018-07-02T07:43:19.934Z,43.07
2018-07-02T07:44:19.814Z,43.07
2018-07-02T07:45:19.815Z,43.27
2018-07-02T07:46:19.812Z,43.85
2018-07-02T07:47:19.692Z,43.27
2018-07-02T07:48:19.691Z,42.97
2018-07-02T07:49:19.692Z,42.88
2018-07-02T07:50:19.570Z,41.46
2018-07-02T07:51:19.571Z,42.13
2018-07-02T07:52:19.572Z,42.03
2018-07-02T07:53:19.569Z,42.23
2018-07-02T07:54:19.457Z,41.94
2018-07-02T07:55:19.452Z,41.36
2018-07-02T07:56:19.408Z,40.20
2018-07-02T07:57:19.336Z,41.46
2018-07-02T07:58:19.328Z,41.46
2018-07-02T07:59:19.329Z,39.53
2018-07-02T08:00:19.207Z,39.45
2018-07-02T08:01:19.208Z,39.74
2018-07-02T08:02:19.209Z,39.45
2018-07-02T08:03:19.088Z,39.84
2018-07-02T08:04:19.088Z,40.70
2018-07-02T08:05:19.122Z,40.32
2018-07-02T08:06:18.967Z,40.22
2018-07-02T08:07:18.972Z,39.74
2018-07-02T08:08:18.968Z,40.15
2018-07-02T08:09:18.846Z,39.76
2018-07-02T08:10:18.845Z,39.66
2018-07-02T08:11:18.848Z,40.24
2018-07-02T08:12:18.738Z,40.15
2018-07-02T08:13:18.818Z,39.49
2018-07-02T08:14:18.724Z,38.62
2018-07-02T08:15:18.604Z,38.14
2018-07-02T08:16:18.602Z,39.01
2018-07-02T08:17:18.606Z,39.03
2018-07-02T08:18:18.483Z,38.64
2018-07-02T08:19:18.567Z,37.96
2018-07-02T08:20:18.484Z,37.58
2018-07-02T08:21:18.363Z,35.57
2018-07-02T08:22:18.361Z,36.13
2018-07-02T08:23:18.364Z,37.60
2018-07-02T08:24:18.241Z,38.56
2018-07-02T08:25:18.245Z,38.66
2018-07-02T08:26:18.241Z,36.84
2018-07-02T08:27:18.202Z,36.74
2018-07-02T08:28:18.120Z,35.97
2018-07-02T08:29:18.121Z,35.58
2018-07-02T08:30:18.120Z,35.78
2018-07-02T08:31:18.001Z,34.92
2018-07-02T08:32:17.999Z,35.89
2018-07-02T08:33:18.039Z,35.21
2018-07-02T08:34:17.880Z,35.60
2018-07-02T08:35:17.879Z,34.44
2018-07-02T08:36:17.884Z,33.59
2018-07-02T08:37:17.760Z,32.71
2018-07-02T08:38:17.759Z,33.20
2018-07-02T08:39:17.759Z,33.41
2018-07-02T08:40:17.641Z,33.31
2018-07-02T08:41:17.639Z,32.44
2018-07-02T08:42:17.638Z,32.82
2018-07-02T08:43:17.519Z,32.34
2018-07-02T08:44:17.521Z,31.78
2018-07-02T08:45:17.517Z,31.59
2018-07-02T08:46:17.475Z,31.20
2018-07-02T08:47:17.397Z,31.20
2018-07-02T08:48:17.395Z,30.42
2018-07-02T08:49:17.395Z,31.41
2018-07-02T08:50:17.277Z,30.73
2018-07-02T08:51:17.275Z,30.63
2018-07-02T08:52:17.275Z,30.24
2018-07-02T08:53:17.154Z,30.54
2018-07-02T08:54:17.154Z,30.15
2018-07-02T08:55:17.157Z,30.24
2018-07-02T08:56:17.039Z,30.16
2018-07-02T08:57:17.036Z,29.68
2018-07-02T08:58:17.067Z,29.48
2018-07-02T08:59:16.913Z,29.19
2018-07-02T09:00:16.912Z,29.10
2018-07-02T09:01:16.912Z,28.72
2018-07-02T09:02:16.912Z,29.11
2018-07-02T09:03:16.794Z,28.04
2018-07-02T09:04:16.790Z,29.21
2018-07-02T09:05:16.791Z,28.43
2018-07-02T09:06:16.671Z,29.40
2018-07-02T09:07:16.671Z,29.21
2018-07-02T09:08:16.672Z,28.54
2018-07-02T09:09:16.552Z,27.96
2018-07-02T09:10:16.550Z,28.15
2018-07-02T09:11:16.552Z,28.44
2018-07-02T09:12:16.430Z,28.44
2018-07-02T09:13:16.431Z,28.05
2018-07-02T09:14:16.428Z,28.44
2018-07-02T09:15:16.429Z,28.25
2018-07-02T09:16:16.396Z,28.54
2018-07-02T09:17:16.312Z,28.36
2018-07-02T09:18:16.308Z,27.39
2018-07-02T09:19:16.186Z,27.19
2018-07-02T09:20:16.188Z,27.97
2018-07-02T09:21:16.187Z,28.36
2018-07-02T09:22:16.067Z,27.68
2018-07-02T09:23:16.069Z,27.21
2018-07-02T09:24:16.068Z,27.69
2018-07-02T09:25:16.068Z,27.40
2018-07-02T09:26:15.948Z,27.40
2018-07-02T09:27:15.949Z,28.08
2018-07-02T09:28:15.948Z,27.59
2018-07-02T09:29:15.829Z,27.31
2018-07-02T09:30:15.828Z,26.72
2018-07-02T09:31:15.908Z,26.92
2018-07-02T09:32:15.760Z,26.43
2018-07-02T09:33:15.703Z,26.92
2018-07-02T09:35:15.661Z,28.29
2018-07-02T09:36:15.591Z,27.22
2018-07-02T09:37:15.582Z,27.42
2018-07-02T09:38:15.584Z,27.42
2018-07-02T09:39:15.477Z,26.93
2018-07-02T09:40:15.464Z,27.12
2018-07-02T09:41:15.465Z,27.42
2018-07-02T09:42:15.345Z,27.04
2018-07-02T09:43:15.341Z,27.23
2018-07-02T09:44:15.341Z,27.23
2018-07-02T09:45:15.340Z,27.72
2018-07-02T09:46:15.225Z,26.55
2018-07-02T09:47:15.225Z,26.86
2018-07-02T09:48:15.222Z,25.89
2018-07-02T09:49:15.103Z,27.44
2018-07-02T09:50:15.104Z,26.08
2018-07-02T09:51:15.102Z,27.25
2018-07-02T09:52:14.980Z,25.98
2018-07-02T09:53:14.981Z,27.54
2018-07-02T09:54:14.980Z,27.25
2018-07-02T09:55:14.981Z,27.16
2018-07-02T09:56:14.860Z,27.36
2018-07-02T09:57:14.861Z,26.48
2018-07-02T09:58:14.858Z,25.51
2018-07-02T09:59:14.739Z,25.80
2018-07-02T10:00:14.741Z,25.70
2018-07-02T10:01:14.737Z,26.59
2018-07-02T10:02:14.617Z,25.23
2018-07-02T10:03:14.619Z,25.62
2018-07-02T10:04:14.615Z,25.71
2018-07-02T10:05:14.616Z,26.01
2018-07-02T10:06:14.502Z,26.01
2018-07-02T10:07:14.500Z,26.10
2018-07-02T10:08:14.497Z,25.62
2018-07-02T10:09:14.378Z,24.55
2018-07-02T10:10:14.416Z,24.94
2018-07-02T10:11:14.375Z,26.21
2018-07-02T10:12:14.371Z,26.21
2018-07-02T10:13:14.255Z,25.92
2018-07-02T10:14:14.254Z,25.82
2018-07-02T10:15:14.254Z,25.24
2018-07-02T10:16:14.134Z,24.95
2018-07-02T10:17:14.133Z,25.04
2018-07-02T10:18:14.138Z,25.34
2018-07-02T10:19:14.131Z,26.02
2018-07-02T10:20:14.067Z,25.73
2018-07-02T10:21:14.011Z,26.02
2018-07-02T10:22:14.013Z,24.56
2018-07-02T10:23:13.895Z,25.35
2018-07-02T10:24:13.891Z,25.25
2018-07-02T10:25:13.891Z,25.93
2018-07-02T10:26:13.848Z,25.05
2018-07-02T10:27:13.774Z,24.96
2018-07-02T10:28:13.770Z,25.15
2018-07-02T10:29:13.859Z,24.87
2018-07-02T10:30:13.650Z,24.38
2018-07-02T10:31:13.733Z,25.65
2018-07-02T10:32:13.653Z,25.56
2018-07-02T10:33:13.529Z,24.98
2018-07-02T10:34:13.531Z,24.68
2018-07-02T10:35:13.529Z,24.68
2018-07-02T10:36:13.529Z,24.10
2018-07-02T10:37:13.409Z,24.58
2018-07-02T10:38:13.407Z,24.78
2018-07-02T10:39:13.408Z,24.29
2018-07-02T10:40:13.366Z,24.00
2018-07-02T10:41:13.286Z,24.00
2018-07-02T10:42:13.288Z,23.91
2018-07-02T10:43:13.286Z,24.30
2018-07-02T10:44:13.168Z,23.03
2018-07-02T10:45:13.165Z,23.91
2018-07-02T10:46:13.169Z,23.91
2018-07-02T10:47:13.049Z,23.82
2018-07-02T10:48:13.050Z,23.82
2018-07-02T10:49:13.044Z,23.82
2018-07-02T10:50:13.049Z,25.00
2018-07-02T10:51:12.924Z,24.80
2018-07-02T10:52:12.930Z,23.44
2018-07-02T10:53:12.924Z,23.05
2018-07-02T10:54:12.805Z,23.14
2018-07-02T10:55:12.802Z,22.75
2018-07-02T10:56:12.881Z,23.63
2018-07-02T10:57:12.801Z,22.85
2018-07-02T10:58:12.682Z,23.14
2018-07-02T10:59:12.687Z,23.83
2018-07-02T11:00:12.681Z,22.17
2018-07-02T11:01:12.639Z,22.66
2018-07-02T11:02:12.560Z,22.56
2018-07-02T11:03:12.565Z,22.17
2018-07-02T11:04:12.564Z,22.08
2018-07-02T11:05:12.440Z,22.56
2018-07-02T11:06:12.441Z,22.67
2018-07-02T11:07:12.439Z,22.48
2018-07-02T11:08:12.439Z,22.97
2018-07-02T11:09:12.318Z,22.09
2018-07-02T11:10:12.320Z,21.89
2018-07-02T11:11:12.323Z,21.31
2018-07-02T11:12:12.199Z,21.50
2018-07-02T11:13:12.199Z,22.77
2018-07-02T11:14:12.196Z,21.60
2018-07-02T11:15:12.201Z,21.99
2018-07-02T11:16:12.078Z,22.28
2018-07-02T11:17:12.148Z,22.58
2018-07-02T11:18:12.076Z,22.10
2018-07-02T11:19:11.980Z,21.61
2018-07-02T11:20:11.956Z,19.75
2018-07-02T11:21:11.960Z,21.03
2018-07-02T11:22:11.956Z,21.52
2018-07-02T11:23:11.838Z,21.42
2018-07-02T11:24:11.839Z,20.65
2018-07-02T11:25:11.849Z,20.36
2018-07-02T11:26:11.793Z,19.77
2018-07-02T11:27:11.716Z,20.76
2018-07-02T11:28:11.714Z,20.66
2018-07-02T11:29:11.716Z,19.68
2018-07-02T11:30:11.595Z,21.36
2018-07-02T11:31:11.597Z,19.90
2018-07-02T11:32:11.595Z,20.68
2018-07-02T11:33:11.593Z,19.60
2018-07-02T11:34:11.473Z,19.60
2018-07-02T11:35:11.472Z,20.69
2018-07-02T11:36:11.481Z,19.91
2018-07-02T11:37:11.475Z,18.92
2018-07-02T11:38:11.360Z,18.23
2018-07-02T11:39:11.354Z,18.52
2018-07-02T11:40:11.354Z,19.02
2018-07-02T11:41:11.231Z,19.02
2018-07-02T11:42:11.231Z,19.51
2018-07-02T11:43:11.234Z,18.83
2018-07-02T11:44:11.313Z,18.93
2018-07-02T11:45:11.111Z,19.42
2018-07-02T11:46:11.111Z,18.93
2018-07-02T11:47:11.112Z,19.62
2018-07-02T11:48:11.067Z,18.84
2018-07-02T11:49:10.990Z,19.13
2018-07-02T11:50:10.990Z,19.23
2018-07-02T11:51:11.011Z,19.13
2018-07-02T11:52:10.869Z,18.36
2018-07-02T11:53:10.870Z,18.75
2018-07-02T11:54:10.869Z,18.26
2018-07-02T11:55:10.874Z,17.77
2018-07-02T11:56:10.749Z,17.19
2018-07-02T11:57:10.750Z,17.38
2018-07-02T11:58:10.749Z,17.98
2018-07-02T11:59:10.753Z,17.29
2018-07-02T12:00:10.630Z,16.80
2018-07-02T12:01:10.629Z,17.29
2018-07-02T12:02:10.630Z,17.38
2018-07-02T12:03:10.510Z,17.68
2018-07-02T12:04:10.513Z,17.88
2018-07-02T12:05:10.583Z,17.49
2018-07-02T12:06:10.508Z,17.39
2018-07-02T12:07:10.390Z,16.42
2018-07-02T12:08:10.387Z,17.79
2018-07-02T12:09:10.387Z,17.69
2018-07-02T12:10:10.386Z,18.19
2018-07-02T12:11:10.270Z,16.52
2018-07-02T12:12:10.264Z,16.43
2018-07-02T12:13:10.266Z,16.43
2018-07-02T12:14:10.270Z,16.05
2018-07-02T12:15:10.147Z,15.95
2018-07-02T12:16:10.145Z,15.55
2018-07-02T12:17:10.151Z,15.26
2018-07-02T12:18:10.107Z,16.36
2018-07-02T12:19:10.023Z,15.77
2018-07-02T12:20:10.023Z,14.88
2018-07-02T12:21:10.027Z,15.17
2018-07-02T12:22:09.903Z,15.36
2018-07-02T12:23:09.911Z,15.36
2018-07-02T12:24:09.905Z,14.48
2018-07-02T12:25:09.904Z,14.97
2018-07-02T12:26:09.843Z,15.47
2018-07-02T12:27:09.794Z,16.45
2018-07-02T12:28:09.780Z,14.98
2018-07-02T12:29:09.780Z,15.19
2018-07-02T12:30:09.662Z,14.50
2018-07-02T12:31:09.664Z,14.70
2018-07-02T12:32:09.660Z,14.51
2018-07-02T12:33:09.737Z,14.42
2018-07-02T12:34:09.549Z,13.34
2018-07-02T12:35:09.542Z,12.94
2018-07-02T12:36:09.541Z,12.74
2018-07-02T12:37:09.547Z,13.14
2018-07-02T12:38:09.421Z,13.14
2018-07-02T12:39:09.419Z,12.76
2018-07-02T12:40:09.419Z,12.36
2018-07-02T12:41:09.423Z,12.86
2018-07-02T12:42:09.298Z,13.26
2018-07-02T12:43:09.298Z,12.28
2018-07-02T12:44:09.298Z,12.18
2018-07-02T12:45:09.299Z,12.38
2018-07-02T12:46:09.189Z,12.10
2018-07-02T12:47:09.180Z,11.51
2018-07-02T12:48:09.176Z,12.81
2018-07-02T12:49:09.177Z,12.41
2018-07-02T12:50:09.062Z,10.93
2018-07-02T12:51:09.056Z,11.22
2018-07-02T12:52:09.054Z,10.72
2018-07-02T12:53:09.055Z,10.63
2018-07-02T12:54:09.047Z,11.42